createdAt,value
2023-02-26T00:01:27.195Z,18.56
2023-02-26T00:05:27.254Z,18.56
2023-02-26T00:09:27.210Z,18.55
2023-02-26T00:13:27.173Z,18.55
2023-02-26T00:17:27.154Z,18.56
2023-02-26T00:21:27.138Z,18.57
2023-02-26T00:25:27.122Z,18.56
2023-02-26T00:29:27.129Z,18.56
2023-02-26T00:33:27.082Z,18.57
2023-02-26T00:37:28.105Z,18.58
2023-02-26T00:41:27.143Z,18.59
2023-02-26T00:45:27.108Z,18.59
2023-02-26T00:49:27.114Z,18.59
2023-02-26T00:53:27.133Z,18.58
2023-02-26T00:57:27.135Z,18.58
2023-02-26T01:01:27.238Z,18.60
2023-02-26T01:05:27.226Z,18.58
2023-02-26T01:09:27.176Z,18.59
2023-02-26T01:13:27.210Z,18.59
2023-02-26T01:17:27.201Z,18.60
2023-02-26T01:21:27.179Z,18.59
2023-02-26T01:25:27.194Z,18.58
2023-02-26T01:29:27.228Z,18.58
2023-02-26T01:33:27.249Z,18.59
2023-02-26T01:37:27.265Z,18.60
2023-02-26T01:41:27.284Z,18.60
2023-02-26T01:45:27.374Z,18.59
2023-02-26T01:49:27.405Z,18.62
2023-02-26T01:53:27.483Z,18.62
2023-02-26T01:57:27.508Z,18.61
2023-02-26T02:01:27.616Z,18.62
2023-02-26T02:05:27.720Z,18.62
2023-02-26T02:09:27.776Z,18.63
2023-02-26T02:13:27.880Z,18.62
2023-02-26T02:17:27.928Z,18.62
2023-02-26T02:21:27.966Z,18.62
2023-02-26T02:25:27.975Z,18.62
2023-02-26T02:29:27.993Z,18.62
2023-02-26T02:33:27.994Z,18.63
2023-02-26T02:37:28.030Z,18.62
2023-02-26T02:41:28.068Z,18.62
2023-02-26T02:45:28.154Z,18.63
2023-02-26T02:49:28.209Z,18.61
2023-02-26T02:53:28.245Z,18.61
2023-02-26T02:57:28.245Z,18.61
2023-02-26T03:01:28.254Z,18.60
2023-02-26T03:05:28.280Z,18.59
2023-02-26T03:09:28.228Z,18.59
2023-02-26T03:13:28.334Z,18.59
2023-02-26T03:17:28.294Z,18.58
2023-02-26T03:21:28.319Z,18.58
2023-02-26T03:25:28.324Z,18.58
2023-02-26T03:29:28.328Z,18.58
2023-02-26T03:33:28.330Z,18.57
2023-02-26T03:37:28.384Z,18.56
2023-02-26T03:41:28.362Z,18.55
2023-02-26T03:45:28.358Z,18.56
2023-02-26T03:49:28.370Z,18.55
2023-02-26T03:53:28.339Z,18.54
2023-02-26T03:57:28.388Z,18.55
2023-02-26T04:01:28.372Z,18.55
2023-02-26T04:05:28.334Z,18.54
2023-02-26T04:09:28.352Z,18.55
2023-02-26T04:13:28.312Z,18.55
2023-02-26T04:17:30.214Z,18.54
2023-02-26T04:21:28.292Z,18.54
2023-02-26T04:25:28.294Z,18.55
2023-02-26T04:29:28.229Z,18.54
2023-02-26T04:33:28.224Z,18.53
2023-02-26T04:37:28.224Z,18.53
2023-02-26T04:41:28.453Z,18.53
2023-02-26T04:45:28.194Z,18.52
2023-02-26T04:49:28.169Z,18.53
2023-02-26T04:53:28.122Z,18.53
2023-02-26T04:57:28.127Z,18.53
2023-02-26T05:01:28.127Z,18.53
2023-02-26T05:05:28.136Z,18.51
2023-02-26T05:09:28.084Z,18.50
2023-02-26T05:13:28.074Z,18.49
2023-02-26T05:17:28.045Z,18.51
2023-02-26T05:21:28.032Z,18.52
2023-02-26T05:25:28.040Z,18.49
2023-02-26T05:29:28.004Z,18.49
2023-02-26T05:33:28.022Z,18.49
2023-02-26T05:37:28.017Z,18.49
2023-02-26T05:41:27.980Z,18.48
2023-02-26T05:45:28.012Z,18.47
2023-02-26T05:49:27.963Z,18.48
2023-02-26T05:53:27.963Z,18.48
2023-02-26T05:57:27.955Z,18.47
2023-02-26T06:01:27.956Z,18.46
2023-02-26T06:05:27.956Z,18.46
2023-02-26T06:09:27.935Z,18.46
2023-02-26T06:13:27.935Z,18.46
2023-02-26T06:17:27.944Z,18.46
2023-02-26T06:21:27.899Z,18.46
2023-02-26T06:25:27.920Z,18.46
2023-02-26T06:29:27.910Z,18.45
2023-02-26T06:33:27.912Z,18.47
2023-02-26T06:37:27.914Z,18.46
2023-02-26T06:41:27.913Z,18.46
2023-02-26T06:45:27.934Z,18.47
2023-02-26T06:49:27.927Z,18.48
2023-02-26T06:53:27.930Z,18.50
2023-02-26T06:57:27.915Z,18.50
2023-02-26T07:01:27.948Z,18.50
2023-02-26T07:05:27.883Z,18.50
2023-02-26T07:09:27.902Z,18.50
2023-02-26T07:13:27.859Z,18.52
2023-02-26T07:17:27.909Z,18.53
2023-02-26T07:21:27.876Z,18.51
2023-02-26T07:25:27.854Z,18.50
2023-02-26T07:29:27.886Z,18.51
2023-02-26T07:33:27.847Z,18.51
2023-02-26T07:37:27.836Z,18.52
2023-02-26T07:41:27.847Z,18.54
2023-02-26T07:45:27.791Z,18.54
2023-02-26T07:49:27.790Z,18.53
2023-02-26T07:53:27.772Z,18.52
2023-02-26T07:57:27.767Z,18.54
2023-02-26T08:01:27.779Z,18.53
2023-02-26T08:05:29.936Z,18.54
2023-02-26T08:09:27.710Z,18.53
2023-02-26T08:13:27.707Z,18.55
2023-02-26T08:17:27.707Z,18.55
2023-02-26T08:21:27.664Z,18.55
2023-02-26T08:25:27.686Z,18.55
2023-02-26T08:29:27.660Z,18.55
2023-02-26T08:33:27.640Z,18.57
2023-02-26T08:37:27.657Z,18.58
2023-02-26T08:41:27.858Z,18.58
2023-02-26T08:45:27.632Z,18.58
2023-02-26T08:49:27.649Z,18.60
2023-02-26T08:53:27.639Z,18.63
2023-02-26T08:57:27.730Z,18.64
2023-02-26T09:01:28.182Z,18.63
2023-02-26T09:05:27.696Z,18.63
2023-02-26T09:09:27.825Z,18.64
2023-02-26T09:13:27.922Z,18.63
2023-02-26T09:17:28.062Z,18.65
2023-02-26T09:21:28.176Z,18.65
2023-02-26T09:25:28.289Z,18.66
2023-02-26T09:29:28.370Z,18.66
2023-02-26T09:33:28.471Z,18.67
2023-02-26T09:37:28.584Z,18.68
2023-02-26T09:41:28.742Z,18.68
2023-02-26T09:45:28.897Z,18.67
2023-02-26T09:49:28.965Z,18.67
2023-02-26T09:53:29.064Z,18.67
2023-02-26T09:57:29.134Z,18.67
2023-02-26T10:01:29.191Z,18.67
2023-02-26T10:05:29.260Z,18.67
2023-02-26T10:09:29.340Z,18.67
2023-02-26T10:13:29.394Z,18.66
2023-02-26T10:17:29.422Z,18.66
2023-02-26T10:21:29.447Z,18.66
2023-02-26T10:25:29.536Z,18.66
2023-02-26T10:29:29.458Z,18.68
2023-02-26T10:33:29.518Z,18.67
2023-02-26T10:37:29.578Z,18.66
2023-02-26T10:41:29.657Z,18.67
2023-02-26T10:45:29.681Z,18.66
2023-02-26T10:49:29.692Z,18.66
2023-02-26T10:53:29.820Z,18.66
2023-02-26T10:57:29.827Z,18.65
2023-02-26T11:01:29.985Z,18.66
2023-02-26T11:05:29.785Z,18.65
2023-02-26T11:09:29.775Z,18.65
2023-02-26T11:13:29.755Z,18.66
2023-02-26T11:17:29.776Z,18.66
2023-02-26T11:21:29.760Z,18.66
2023-02-26T11:25:29.701Z,18.67
2023-02-26T11:29:29.697Z,18.67
2023-02-26T11:33:29.683Z,18.67
2023-02-26T11:37:29.664Z,18.67
2023-02-26T11:41:29.899Z,18.68
2023-02-26T11:45:29.666Z,18.68
2023-02-26T11:49:29.716Z,18.69
2023-02-26T11:53:29.726Z,18.71
2023-02-26T11:57:29.823Z,18.71
2023-02-26T12:01:29.992Z,18.70
2023-02-26T12:05:29.941Z,18.70
2023-02-26T12:09:29.970Z,18.71
2023-02-26T12:13:30.023Z,18.70
2023-02-26T12:17:30.051Z,18.69
2023-02-26T12:21:30.157Z,18.70
2023-02-26T12:25:30.128Z,18.71
2023-02-26T12:29:30.176Z,18.70
2023-02-26T12:33:30.249Z,18.71
2023-02-26T12:37:30.359Z,18.70
2023-02-26T12:41:30.410Z,18.70
2023-02-26T12:45:30.457Z,18.70
2023-02-26T12:49:30.542Z,18.70
2023-02-26T12:53:30.559Z,18.70
2023-02-26T12:57:30.643Z,18.71
2023-02-26T13:01:33.481Z,18.71
2023-02-26T13:05:30.685Z,18.72
2023-02-26T13:09:30.649Z,18.71
2023-02-26T13:13:30.624Z,18.72
2023-02-26T13:17:30.592Z,18.70
2023-02-26T13:21:30.533Z,18.71
2023-02-26T13:25:30.524Z,18.73
2023-02-26T13:29:30.460Z,18.73
2023-02-26T13:33:30.475Z,18.72
2023-02-26T13:37:30.428Z,18.72
2023-02-26T13:41:30.404Z,18.72
2023-02-26T13:45:30.378Z,18.72
2023-02-26T13:49:30.337Z,18.73
2023-02-26T13:53:30.305Z,18.74
2023-02-26T13:57:30.237Z,18.74
2023-02-26T14:01:30.556Z,18.77
2023-02-26T14:05:30.464Z,18.79
2023-02-26T14:09:30.678Z,18.81
2023-02-26T14:13:30.887Z,18.82
2023-02-26T14:17:31.058Z,18.83
2023-02-26T14:21:31.300Z,18.82
2023-02-26T14:25:31.243Z,18.83
2023-02-26T14:29:31.187Z,18.82
2023-02-26T14:33:31.187Z,18.80
2023-02-26T14:37:31.132Z,18.82
2023-02-26T14:41:31.103Z,18.86
2023-02-26T14:45:31.065Z,18.88
2023-02-26T14:49:31.024Z,18.89
2023-02-26T14:53:30.975Z,18.87
2023-02-26T14:57:30.940Z,18.82
2023-02-26T15:01:30.910Z,18.80
2023-02-26T15:05:30.905Z,18.78
2023-02-26T15:09:31.415Z,18.75
2023-02-26T15:13:30.943Z,18.73
2023-02-26T15:17:30.961Z,18.72
2023-02-26T15:21:30.987Z,18.69
2023-02-26T15:25:30.975Z,18.68
2023-02-26T15:29:30.960Z,18.67
2023-02-26T15:33:30.994Z,18.66
2023-02-26T15:37:30.987Z,18.65
2023-02-26T15:41:30.994Z,18.64
2023-02-26T15:45:30.934Z,18.63
2023-02-26T15:49:30.920Z,18.63
2023-02-26T15:53:30.932Z,18.61
2023-02-26T15:57:30.933Z,18.60
2023-02-26T16:01:30.935Z,18.59
2023-02-26T16:05:30.880Z,18.59
2023-02-26T16:09:30.890Z,18.59
2023-02-26T16:13:30.855Z,18.57
2023-02-26T16:17:30.860Z,18.56
2023-02-26T16:21:30.823Z,18.56
2023-02-26T16:25:30.823Z,18.56
2023-02-26T16:29:30.807Z,18.56
2023-02-26T16:33:30.818Z,18.54
2023-02-26T16:37:30.820Z,18.55
2023-02-26T16:41:30.812Z,18.55
2023-02-26T16:45:30.805Z,18.55
2023-02-26T16:49:30.783Z,18.52
2023-02-26T16:53:30.817Z,18.52
2023-02-26T16:57:30.834Z,18.53
2023-02-26T17:01:30.781Z,18.51
2023-02-26T17:05:30.820Z,18.51
2023-02-26T17:09:30.799Z,18.51
2023-02-26T17:13:30.835Z,18.50
2023-02-26T17:17:30.827Z,18.49
2023-02-26T17:21:30.857Z,18.48
2023-02-26T17:25:30.849Z,18.48
2023-02-26T17:29:30.868Z,18.47
2023-02-26T17:33:30.911Z,18.46
2023-02-26T17:37:30.907Z,18.45
2023-02-26T17:41:30.953Z,18.44
2023-02-26T17:45:31.012Z,18.44
2023-02-26T17:49:31.017Z,18.43
2023-02-26T17:53:31.068Z,18.43
2023-02-26T17:57:31.111Z,18.42
2023-02-26T18:01:31.272Z,18.42
2023-02-26T18:05:31.166Z,18.42
2023-02-26T18:09:31.211Z,18.42
2023-02-26T18:13:31.244Z,18.41
2023-02-26T18:17:31.292Z,18.41
2023-02-26T18:21:31.300Z,18.41
2023-02-26T18:25:31.360Z,18.41
2023-02-26T18:29:31.442Z,18.41
2023-02-26T18:33:31.493Z,18.40
2023-02-26T18:37:31.521Z,18.40
2023-02-26T18:41:31.584Z,18.41
2023-02-26T18:45:31.606Z,18.41
2023-02-26T18:49:31.634Z,18.40
2023-02-26T18:53:31.670Z,18.40
2023-02-26T18:57:31.714Z,18.40
2023-02-26T19:01:32.045Z,18.40
2023-02-26T19:05:31.839Z,18.41
2023-02-26T19:09:31.915Z,18.40
2023-02-26T19:13:31.974Z,18.40
2023-02-26T19:17:32.006Z,18.40
2023-02-26T19:21:32.082Z,18.39
2023-02-26T19:25:32.133Z,18.38
2023-02-26T19:29:32.169Z,18.38
2023-02-26T19:33:32.254Z,18.37
2023-02-26T19:37:32.312Z,18.37
2023-02-26T19:41:32.379Z,18.37
2023-02-26T19:45:32.453Z,18.35
2023-02-26T19:49:32.510Z,18.36
2023-02-26T19:53:32.595Z,18.36
2023-02-26T19:57:32.681Z,18.35
2023-02-26T20:01:32.766Z,18.33
2023-02-26T20:05:32.764Z,18.34
2023-02-26T20:09:32.841Z,18.35
2023-02-26T20:13:32.908Z,18.34
2023-02-26T20:17:32.988Z,18.35
2023-02-26T20:21:33.084Z,18.34
2023-02-26T20:25:33.096Z,18.34
2023-02-26T20:29:33.225Z,18.35
2023-02-26T20:33:33.429Z,18.34
2023-02-26T20:37:33.342Z,18.34
2023-02-26T20:41:33.436Z,18.34
2023-02-26T20:45:33.469Z,18.35
2023-02-26T20:49:33.572Z,18.35
2023-02-26T20:53:33.642Z,18.34
2023-02-26T20:57:33.690Z,18.35
2023-02-26T21:01:33.803Z,18.35
2023-02-26T21:05:33.833Z,18.35
2023-02-26T21:09:33.925Z,18.36
2023-02-26T21:13:33.989Z,18.35
2023-02-26T21:17:34.054Z,18.36
2023-02-26T21:21:34.435Z,18.36
2023-02-26T21:25:34.239Z,18.35
2023-02-26T21:29:34.306Z,18.36
2023-02-26T21:33:34.381Z,18.34
2023-02-26T21:37:34.458Z,18.34
2023-02-26T21:41:34.501Z,18.33
2023-02-26T21:45:34.581Z,18.32
2023-02-26T21:49:34.630Z,18.34
2023-02-26T21:53:34.670Z,18.32
2023-02-26T21:57:34.763Z,18.32
2023-02-26T22:01:34.871Z,18.31
2023-02-26T22:05:34.891Z,18.32
2023-02-26T22:09:34.976Z,18.31
2023-02-26T22:13:35.055Z,18.31
2023-02-26T22:17:35.175Z,18.31
2023-02-26T22:21:35.241Z,18.31
2023-02-26T22:25:35.312Z,18.32
2023-02-26T22:29:35.415Z,18.33
2023-02-26T22:33:35.515Z,18.32
2023-02-26T22:37:35.584Z,18.32
2023-02-26T22:41:36.122Z,18.33
2023-02-26T22:45:35.772Z,18.32
2023-02-26T22:49:35.876Z,18.32
2023-02-26T22:53:35.946Z,18.33
2023-02-26T22:57:36.064Z,18.31
2023-02-26T23:01:36.200Z,18.32
2023-02-26T23:05:36.222Z,18.31
2023-02-26T23:09:36.306Z,18.33
2023-02-26T23:13:36.405Z,18.33
2023-02-26T23:17:36.497Z,18.33
2023-02-26T23:21:36.565Z,18.34
2023-02-26T23:25:36.625Z,18.34
2023-02-26T23:29:36.714Z,18.34
2023-02-26T23:33:36.773Z,18.34
2023-02-26T23:37:36.811Z,18.35
2023-02-26T23:41:36.868Z,18.34
2023-02-26T23:45:36.916Z,18.34
2023-02-26T23:49:36.989Z,18.32
2023-02-26T23:53:37.030Z,18.33
2023-02-26T23:57:37.122Z,18.32
